KCLS/CLS METAR and TAF weather

Enter ICAO airport designator
Station Type Date Time Source
KCLS METAR 2018/07/20 14:35 UTC NOAA

KCLS 201435Z AUTO 22003KT 10SM OVC022 12/10 A3022 RMK AO2


Station Type Date Time Source
KCLS Decoded METAR 2018/07/20 14:35 UTC NOAA

Station name not available
Jul 20, 2018 - 10:35 AM EDT / 2018.07.20 1435 UTC
Wind: from the SW (220 degrees) at 3 MPH (3 KT):0
Visibility: 10 mile(s):0
Sky conditions: overcast
Temperature: 53 F (12 C)
Dew Point: 50 F (10 C)
Relative Humidity: 87%
Pressure (altimeter): 30.22 in. Hg (1023 hPa)
ob: KCLS 201435Z AUTO 22003KT 10SM OVC022 12/10 A3022 RMK AO2
cycle: 14

Station Type Date Time Source
KCLS TAF UTC NOAA

Error!


Example: see airport list